Time;durP1;ratioP1;P1;durP2;ratioP2;P2;SDS_P1;SDS_P2;PMS_P1;PMS_P2;Temp;Humidity;BMP_temperature;BMP_pressure;BME280_temperature;BME280_humidity;BME280_pressure;Samples;Min_cycle;Max_cycle;Signal;HPM_P1;HPM_P2
2022/10/09 00:02:05;;;;;;;0.40;0.40;;;;;;;;;;1790179;78;26299;-52
2022/10/09 00:04:32;;;;;;;0.90;0.50;;;;;;;;;;1775815;79;26259;-50
2022/10/09 00:06:59;;;;;;;0.60;0.60;;;;;;;;;;1777394;79;26283;-50
2022/10/09 00:09:26;;;;;;;0.53;0.42;;;;;;;;;;1792398;79;27013;-50
2022/10/09 00:11:54;;;;;;;0.47;0.47;;;;;;;;;;1761029;79;26330;-48
2022/10/09 00:14:21;;;;;;;0.50;0.50;;;;;;;;;;1765028;79;26321;-51
2022/10/09 00:16:48;;;;;;;0.40;0.40;;;;;;;;;;1776625;78;26623;-51
2022/10/09 00:19:16;;;;;;;0.30;0.30;;;;;;;;;;1778505;79;26302;-51
2022/10/09 00:21:43;;;;;;;0.50;0.50;;;;;;;;;;1778593;79;26707;-50
2022/10/09 00:24:10;;;;;;;0.30;0.30;;;;;;;;;;1784297;79;26337;-50
2022/10/09 00:26:38;;;;;;;0.40;0.40;;;;;;;;;;1775503;79;26279;-52
2022/10/09 00:29:05;;;;;;;0.50;0.50;;;;;;;;;;1808772;79;26224;-49
2022/10/09 00:31:32;;;;;;;0.33;0.33;;;;;;;;;;1808162;79;26264;-52
2022/10/09 00:34:00;;;;;;;1.35;0.30;;;;;;;;;;1763907;79;26308;-49
2022/10/09 00:36:27;;;;;;;0.40;0.40;;;;;;;;;;1765250;79;26259;-51
2022/10/09 00:38:55;;;;;;;0.40;0.40;;;;;;;;;;1784377;78;26793;-47
2022/10/09 00:41:24;;;;;;;0.40;0.37;;;;;;;;;;1771047;78;26301;-52
2022/10/09 00:43:55;;;;;;;0.45;0.30;;;;;;;;;;1777170;78;26235;-51
2022/10/09 00:46:25;;;;;;;0.53;0.23;;;;;;;;;;1793531;79;26293;-49
2022/10/09 00:48:56;;;;;;;0.30;0.30;;;;;;;;;;1776098;78;26805;-53
2022/10/09 00:51:24;;;;;;;0.30;0.30;;;;;;;;;;1781747;79;26349;-52
2022/10/09 00:53:51;;;;;;;0.23;0.23;;;;;;;;;;1795366;78;26227;-52
2022/10/09 00:56:19;;;;;;;0.30;0.30;;;;;;;;;;1778309;78;26863;-52
2022/10/09 00:58:48;;;;;;;0.33;0.33;;;;;;;;;;1756760;79;26309;-52
2022/10/09 01:01:15;;;;;;;0.20;0.20;;;;;;;;;;1800888;78;26782;-48
2022/10/09 01:03:42;;;;;;;0.20;0.20;;;;;;;;;;1784173;79;26306;-51
2022/10/09 01:06:11;;;;;;;0.20;0.20;;;;;;;;;;1784296;78;26302;-50
2022/10/09 01:08:46;;;;;;;0.45;0.45;;;;;;;;;;1789022;79;26277;-52
2022/10/09 01:11:20;;;;;;;0.30;0.30;;;;;;;;;;1778675;79;26762;-51
2022/10/09 01:13:49;;;;;;;0.33;0.33;;;;;;;;;;1771544;77;26282;-51
2022/10/09 01:16:18;;;;;;;0.20;0.20;;;;;;;;;;1772483;79;26248;-51
2022/10/09 01:18:50;;;;;;;0.30;0.30;;;;;;;;;;1760790;79;26684;-53
2022/10/09 01:21:25;;;;;;;0.30;0.25;;;;;;;;;;1792984;79;27096;-54
2022/10/09 01:24:10;;;;;;;0.30;0.30;;;;;;;;;;1763529;79;26259;-50
2022/10/09 01:26:57;;;;;;;0.30;0.30;;;;;;;;;;1776203;79;27115;-53
2022/10/09 01:29:26;;;;;;;0.17;0.17;;;;;;;;;;1773473;79;26764;-51
2022/10/09 01:31:54;;;;;;;0.15;0.15;;;;;;;;;;1778142;79;26249;-52
2022/10/09 01:34:23;;;;;;;0.23;0.23;;;;;;;;;;1799950;79;26217;-52
2022/10/09 01:36:50;;;;;;;0.37;0.37;;;;;;;;;;1783793;79;26671;-51
2022/10/09 01:39:19;;;;;;;0.40;0.40;;;;;;;;;;1772086;79;26299;-50
2022/10/09 01:41:47;;;;;;;0.20;0.20;;;;;;;;;;1761687;79;26308;-49
2022/10/09 01:44:19;;;;;;;0.30;0.30;;;;;;;;;;1770931;79;26740;-49
2022/10/09 01:46:47;;;;;;;0.20;0.20;;;;;;;;;;1782187;79;26747;-52
2022/10/09 01:49:19;;;;;;;0.20;0.20;;;;;;;;;;1785454;79;26289;-50
2022/10/09 01:51:51;;;;;;;0.20;0.20;;;;;;;;;;1786442;79;26223;-52
2022/10/09 01:54:19;;;;;;;0.25;0.25;;;;;;;;;;1784667;79;26684;-52
2022/10/09 01:56:48;;;;;;;0.20;0.20;;;;;;;;;;1789913;79;26462;-50
2022/10/09 01:59:16;;;;;;;0.23;0.23;;;;;;;;;;1789725;79;26182;-52
2022/10/09 02:01:45;;;;;;;0.60;0.20;;;;;;;;;;1789958;79;26222;-49
2022/10/09 02:04:14;;;;;;;0.30;0.30;;;;;;;;;;1790309;79;26718;-51
2022/10/09 02:06:42;;;;;;;0.10;0.10;;;;;;;;;;1771229;79;26304;-51
2022/10/09 02:09:11;;;;;;;0.53;0.20;;;;;;;;;;1789046;79;26259;-52
2022/10/09 02:11:40;;;;;;;0.20;0.20;;;;;;;;;;1771993;79;26344;-49
2022/10/09 02:14:08;;;;;;;0.20;0.20;;;;;;;;;;1786960;79;26215;-52
2022/10/09 02:16:39;;;;;;;0.20;0.20;;;;;;;;;;1766236;79;26295;-51
2022/10/09 02:19:08;;;;;;;0.20;0.20;;;;;;;;;;1763765;79;26349;-50
2022/10/09 02:21:39;;;;;;;0.20;0.20;;;;;;;;;;1759650;79;27372;-50
2022/10/09 02:24:08;;;;;;;0.15;0.15;;;;;;;;;;1759000;79;26589;-50
2022/10/09 02:26:36;;;;;;;0.30;0.30;;;;;;;;;;1760924;79;26647;-50
2022/10/09 02:29:04;;;;;;;0.20;0.20;;;;;;;;;;1757021;79;26295;-49
2022/10/09 02:31:32;;;;;;;1.25;0.30;;;;;;;;;;1777773;79;26259;-52
2022/10/09 02:34:01;;;;;;;0.20;0.20;;;;;;;;;;1762229;79;26306;-54
2022/10/09 02:36:29;;;;;;;0.28;0.28;;;;;;;;;;1768272;79;26272;-52
2022/10/09 02:38:57;;;;;;;0.30;0.30;;;;;;;;;;1775198;79;26345;-53
2022/10/09 02:41:25;;;;;;;2.17;0.40;;;;;;;;;;1774413;79;26801;-47
2022/10/09 02:43:52;;;;;;;0.20;0.20;;;;;;;;;;1776996;79;26236;-50
2022/10/09 02:46:20;;;;;;;0.85;0.40;;;;;;;;;;1780907;79;26342;-47
2022/10/09 02:48:47;;;;;;;0.57;0.13;;;;;;;;;;1770434;79;26285;-53
2022/10/09 02:51:15;;;;;;;0.30;0.30;;;;;;;;;;1777023;79;26278;-57
2022/10/09 02:53:42;;;;;;;0.45;0.45;;;;;;;;;;1775491;79;26758;-56
2022/10/09 02:56:09;;;;;;;2.30;0.55;;;;;;;;;;1775971;79;26278;-53
2022/10/09 02:58:37;;;;;;;0.30;0.30;;;;;;;;;;1773473;79;26704;-53
2022/10/09 03:01:04;;;;;;;0.10;0.10;;;;;;;;;;1777904;79;26582;-50
2022/10/09 03:03:32;;;;;;;0.23;0.23;;;;;;;;;;1773231;79;26373;-56
2022/10/09 03:06:01;;;;;;;1.85;0.20;;;;;;;;;;1756811;79;27149;-53
2022/10/09 03:08:28;;;;;;;0.10;0.10;;;;;;;;;;1769899;79;26291;-50
2022/10/09 03:10:56;;;;;;;0.50;0.20;;;;;;;;;;1760298;78;28304;-56
2022/10/09 03:13:23;;;;;;;0.30;0.30;;;;;;;;;;1774609;79;26380;-56
2022/10/09 03:15:50;;;;;;;0.35;0.35;;;;;;;;;;1774295;79;27071;-48
2022/10/09 03:18:18;;;;;;;0.20;0.20;;;;;;;;;;1774289;79;26762;-48
2022/10/09 03:20:45;;;;;;;0.40;0.30;;;;;;;;;;1778275;79;26318;-50
2022/10/09 03:23:13;;;;;;;0.10;0.10;;;;;;;;;;1772711;79;26306;-50
2022/10/09 03:25:40;;;;;;;0.30;0.30;;;;;;;;;;1771913;79;26388;-51
2022/10/09 03:28:07;;;;;;;0.20;0.20;;;;;;;;;;1767262;79;26837;-52
2022/10/09 03:30:35;;;;;;;0.37;0.37;;;;;;;;;;1777517;79;26299;-51
2022/10/09 03:33:02;;;;;;;0.25;0.25;;;;;;;;;;1773532;79;26353;-53
2022/10/09 03:35:29;;;;;;;1.22;0.30;;;;;;;;;;1771961;79;26816;-52
2022/10/09 03:37:56;;;;;;;0.33;0.33;;;;;;;;;;1777381;79;27451;-51
2022/10/09 03:40:24;;;;;;;0.30;0.30;;;;;;;;;;1777324;79;26384;-49
2022/10/09 03:42:51;;;;;;;0.25;0.25;;;;;;;;;;1770695;79;26283;-50
2022/10/09 03:45:18;;;;;;;0.20;0.20;;;;;;;;;;1777230;79;26302;-48
2022/10/09 03:47:45;;;;;;;0.35;0.28;;;;;;;;;;1774324;79;26282;-50
2022/10/09 03:50:13;;;;;;;0.30;0.30;;;;;;;;;;1769746;79;26298;-51
2022/10/09 03:52:40;;;;;;;0.37;0.37;;;;;;;;;;1777561;79;26348;-49
2022/10/09 03:55:08;;;;;;;0.23;0.23;;;;;;;;;;1776587;79;26287;-53
2022/10/09 03:57:35;;;;;;;0.42;0.30;;;;;;;;;;1768581;79;26287;-52
2022/10/09 04:00:03;;;;;;;0.40;0.40;;;;;;;;;;1765018;79;26566;-50
2022/10/09 04:02:32;;;;;;;0.20;0.20;;;;;;;;;;1770020;79;26701;-52
2022/10/09 04:04:59;;;;;;;0.30;0.30;;;;;;;;;;1769542;79;26836;-52
2022/10/09 04:07:26;;;;;;;0.30;0.30;;;;;;;;;;1773294;79;27214;-54
2022/10/09 04:09:54;;;;;;;2.30;0.40;;;;;;;;;;1763901;79;26285;-52
2022/10/09 04:12:21;;;;;;;1.60;0.40;;;;;;;;;;1746907;79;28284;-57
2022/10/09 04:14:48;;;;;;;0.65;0.35;;;;;;;;;;1769251;79;26337;-57
2022/10/09 04:17:15;;;;;;;0.30;0.30;;;;;;;;;;1781491;79;26293;-56
2022/10/09 04:19:43;;;;;;;0.30;0.30;;;;;;;;;;1779936;79;26231;-52
2022/10/09 04:22:10;;;;;;;0.37;0.25;;;;;;;;;;1770090;79;26240;-48
2022/10/09 04:24:37;;;;;;;0.62;0.40;;;;;;;;;;1782596;79;26778;-55
2022/10/09 04:27:05;;;;;;;0.40;0.40;;;;;;;;;;1763076;79;26329;-54
2022/10/09 04:29:32;;;;;;;0.50;0.30;;;;;;;;;;1772896;79;26246;-52
2022/10/09 04:31:59;;;;;;;0.55;0.42;;;;;;;;;;1775286;79;26765;-59
2022/10/09 04:34:26;;;;;;;1.95;0.40;;;;;;;;;;1775217;79;26258;-51
2022/10/09 04:36:54;;;;;;;1.75;0.40;;;;;;;;;;1799285;79;26230;-52
2022/10/09 04:39:21;;;;;;;0.30;0.30;;;;;;;;;;1777348;79;26306;-51
2022/10/09 04:41:48;;;;;;;0.30;0.30;;;;;;;;;;1787985;79;26718;-55
2022/10/09 04:44:16;;;;;;;2.37;0.35;;;;;;;;;;1779457;79;26270;-52
2022/10/09 04:46:43;;;;;;;0.93;0.30;;;;;;;;;;1794323;79;26231;-56
2022/10/09 04:49:14;;;;;;;0.30;0.25;;;;;;;;;;1770530;79;26219;-51
2022/10/09 04:51:42;;;;;;;0.30;0.30;;;;;;;;;;1780119;79;26235;-52
2022/10/09 04:54:10;;;;;;;0.30;0.30;;;;;;;;;;1797581;79;26219;-53
2022/10/09 04:56:38;;;;;;;0.20;0.20;;;;;;;;;;1780257;79;26707;-52
2022/10/09 04:59:05;;;;;;;0.30;0.30;;;;;;;;;;1775070;79;26710;-53
2022/10/09 05:01:32;;;;;;;0.20;0.20;;;;;;;;;;1760047;79;26224;-53
2022/10/09 05:04:00;;;;;;;0.23;0.23;;;;;;;;;;1774997;79;26254;-50
2022/10/09 05:06:27;;;;;;;0.85;0.30;;;;;;;;;;1771494;79;26241;-52
2022/10/09 05:08:55;;;;;;;0.20;0.20;;;;;;;;;;1773875;79;26531;-52
2022/10/09 05:11:24;;;;;;;0.50;0.30;;;;;;;;;;1785036;79;26711;-52
2022/10/09 05:13:52;;;;;;;1.07;0.28;;;;;;;;;;1766036;79;26184;-53
2022/10/09 05:16:21;;;;;;;0.20;0.20;;;;;;;;;;1782662;78;26332;-51
2022/10/09 05:18:50;;;;;;;0.30;0.30;;;;;;;;;;1784336;78;26649;-51
2022/10/09 05:21:17;;;;;;;0.20;0.20;;;;;;;;;;1781967;78;26258;-54
2022/10/09 05:23:45;;;;;;;0.15;0.15;;;;;;;;;;1799233;78;26299;-52
2022/10/09 05:26:14;;;;;;;0.30;0.30;;;;;;;;;;1806781;78;26531;-54
2022/10/09 05:28:42;;;;;;;0.37;0.33;;;;;;;;;;1809635;78;27333;-52
2022/10/09 05:31:09;;;;;;;0.20;0.20;;;;;;;;;;1800641;78;26247;-52
2022/10/09 05:33:37;;;;;;;0.20;0.20;;;;;;;;;;1802427;78;27392;-51
2022/10/09 05:36:04;;;;;;;0.30;0.30;;;;;;;;;;1799481;78;26729;-50
2022/10/09 05:38:33;;;;;;;0.20;0.20;;;;;;;;;;1798464;78;26716;-52
2022/10/09 05:41:01;;;;;;;0.20;0.20;;;;;;;;;;1799456;78;26913;-52
2022/10/09 05:43:30;;;;;;;0.25;0.25;;;;;;;;;;1799598;78;26296;-49
2022/10/09 05:46:02;;;;;;;0.33;0.20;;;;;;;;;;1790034;78;26309;-51
2022/10/09 05:48:29;;;;;;;0.17;0.17;;;;;;;;;;1799819;78;26253;-53
2022/10/09 05:51:07;;;;;;;0.20;0.20;;;;;;;;;;1799170;78;26210;-52
2022/10/09 05:53:34;;;;;;;0.30;0.30;;;;;;;;;;1808254;78;26377;-55
2022/10/09 05:56:15;;;;;;;0.20;0.20;;;;;;;;;;1800633;78;26245;-54
2022/10/09 05:58:43;;;;;;;0.20;0.20;;;;;;;;;;1793048;78;26250;-49
2022/10/09 06:01:10;;;;;;;0.20;0.20;;;;;;;;;;1789200;78;26216;-50
2022/10/09 06:03:38;;;;;;;0.35;0.35;;;;;;;;;;1794045;78;26266;-50
2022/10/09 06:06:06;;;;;;;0.20;0.20;;;;;;;;;;1789974;78;26235;-53
2022/10/09 06:08:37;;;;;;;0.10;0.10;;;;;;;;;;1786712;78;26255;-52
2022/10/09 06:11:09;;;;;;;0.23;0.23;;;;;;;;;;1788465;78;26692;-52
2022/10/09 06:13:36;;;;;;;0.20;0.20;;;;;;;;;;1796031;78;26312;-54
2022/10/09 06:16:03;;;;;;;0.28;0.28;;;;;;;;;;1792429;78;26270;-54
2022/10/09 06:18:32;;;;;;;0.20;0.20;;;;;;;;;;1794466;78;27378;-52
2022/10/09 06:21:00;;;;;;;0.20;0.20;;;;;;;;;;1794164;78;26206;-53
2022/10/09 06:23:28;;;;;;;0.42;0.20;;;;;;;;;;1785917;78;26290;-52
2022/10/09 06:25:56;;;;;;;0.47;0.30;;;;;;;;;;1783994;78;26227;-51
2022/10/09 06:28:24;;;;;;;0.28;0.20;;;;;;;;;;1788963;78;26253;-54
2022/10/09 06:30:51;;;;;;;0.42;0.35;;;;;;;;;;1804206;78;26321;-54
2022/10/09 06:33:18;;;;;;;0.93;0.57;;;;;;;;;;1794784;78;26650;-53
2022/10/09 06:35:45;;;;;;;1.17;0.40;;;;;;;;;;1794980;78;26258;-54
2022/10/09 06:38:14;;;;;;;0.40;0.40;;;;;;;;;;1786816;78;26274;-55
2022/10/09 06:40:41;;;;;;;1.10;0.30;;;;;;;;;;1800561;78;26246;-51
2022/10/09 06:43:08;;;;;;;3.92;0.42;;;;;;;;;;1800246;78;26290;-52
2022/10/09 06:45:37;;;;;;;1.65;0.40;;;;;;;;;;1781216;78;26258;-52
2022/10/09 06:48:04;;;;;;;3.80;0.40;;;;;;;;;;1787581;78;26312;-51
2022/10/09 06:50:33;;;;;;;5.30;0.70;;;;;;;;;;1823301;78;26693;-52
2022/10/09 06:53:00;;;;;;;5.83;0.78;;;;;;;;;;1795578;78;26595;-55
2022/10/09 06:55:28;;;;;;;2.58;0.70;;;;;;;;;;1804600;78;26341;-53
2022/10/09 06:57:55;;;;;;;7.85;1.00;;;;;;;;;;1798998;78;26220;-52
2022/10/09 07:00:22;;;;;;;7.20;0.85;;;;;;;;;;1812398;78;26305;-52
2022/10/09 07:02:50;;;;;;;5.47;0.62;;;;;;;;;;1808219;78;26312;-53
2022/10/09 07:05:17;;;;;;;4.10;1.10;;;;;;;;;;1794310;78;26233;-50
2022/10/09 07:07:44;;;;;;;5.08;0.70;;;;;;;;;;1808569;78;26299;-52
2022/10/09 07:10:11;;;;;;;3.27;0.85;;;;;;;;;;1806638;78;26226;-53
2022/10/09 07:12:39;;;;;;;6.22;0.70;;;;;;;;;;1795441;78;26382;-49
2022/10/09 07:15:07;;;;;;;4.33;0.93;;;;;;;;;;1789829;78;26241;-52
2022/10/09 07:17:34;;;;;;;7.10;0.75;;;;;;;;;;1778999;78;27155;-49
2022/10/09 07:20:01;;;;;;;1.10;0.53;;;;;;;;;;1769207;79;26771;-51
2022/10/09 07:22:29;;;;;;;7.85;0.80;;;;;;;;;;1763110;79;26770;-52
2022/10/09 07:24:56;;;;;;;3.40;0.80;;;;;;;;;;1774508;79;26356;-53
2022/10/09 07:27:23;;;;;;;3.55;0.82;;;;;;;;;;1783711;79;26298;-53
2022/10/09 07:29:50;;;;;;;2.08;0.70;;;;;;;;;;1758996;79;26318;-54
2022/10/09 07:32:18;;;;;;;5.33;0.70;;;;;;;;;;1785403;79;26366;-54
2022/10/09 07:34:45;;;;;;;6.78;0.70;;;;;;;;;;1779905;79;26330;-53
2022/10/09 07:37:13;;;;;;;1.75;0.68;;;;;;;;;;1786232;79;26862;-49
2022/10/09 07:39:41;;;;;;;1.80;0.50;;;;;;;;;;1779389;79;26300;-51
2022/10/09 07:42:09;;;;;;;2.75;0.65;;;;;;;;;;1771509;79;26331;-51
2022/10/09 07:44:36;;;;;;;0.90;0.70;;;;;;;;;;1760174;79;26299;-50
2022/10/09 07:47:03;;;;;;;0.55;0.45;;;;;;;;;;1768277;79;26349;-51
2022/10/09 07:49:31;;;;;;;2.42;0.50;;;;;;;;;;1779567;79;26346;-52
2022/10/09 07:51:58;;;;;;;3.12;0.50;;;;;;;;;;1770490;79;25816;-51
2022/10/09 07:54:25;;;;;;;1.02;0.50;;;;;;;;;;1779478;79;26281;-51
2022/10/09 07:56:53;;;;;;;0.82;0.33;;;;;;;;;;1781729;79;26352;-54
2022/10/09 07:59:20;;;;;;;0.35;0.35;;;;;;;;;;1781657;79;26279;-50
2022/10/09 08:01:47;;;;;;;1.65;0.60;;;;;;;;;;1788884;78;26279;-51
2022/10/09 08:04:14;;;;;;;0.68;0.28;;;;;;;;;;1787539;79;26306;-52
2022/10/09 08:06:42;;;;;;;1.50;0.37;;;;;;;;;;1762267;79;26376;-53
2022/10/09 08:09:09;;;;;;;0.53;0.30;;;;;;;;;;1756678;79;26279;-53
2022/10/09 08:11:39;;;;;;;2.70;0.40;;;;;;;;;;1759063;79;26618;-51
2022/10/09 08:14:06;;;;;;;1.55;0.30;;;;;;;;;;1767194;79;27208;-51
2022/10/09 08:16:33;;;;;;;1.35;0.50;;;;;;;;;;1782360;79;26469;-50
2022/10/09 08:19:01;;;;;;;1.27;0.40;;;;;;;;;;1790664;78;26345;-55
2022/10/09 08:21:29;;;;;;;0.40;0.40;;;;;;;;;;1780703;78;27068;-51
2022/10/09 08:23:57;;;;;;;1.30;0.30;;;;;;;;;;1812761;78;26243;-49
2022/10/09 08:26:25;;;;;;;1.98;0.60;;;;;;;;;;1827725;78;26303;-52
2022/10/09 08:28:54;;;;;;;2.00;0.23;;;;;;;;;;1803660;78;26905;-53
2022/10/09 08:31:22;;;;;;;0.45;0.20;;;;;;;;;;1817921;78;26226;-53
2022/10/09 08:33:53;;;;;;;1.20;0.30;;;;;;;;;;1801533;78;26324;-52
2022/10/09 08:36:20;;;;;;;0.75;0.40;;;;;;;;;;1810439;78;26791;-53
2022/10/09 08:38:48;;;;;;;0.33;0.33;;;;;;;;;;1792005;78;26242;-55
2022/10/09 08:41:17;;;;;;;1.60;0.30;;;;;;;;;;1789855;78;26217;-53
2022/10/09 08:43:46;;;;;;;0.40;0.40;;;;;;;;;;1804505;78;26253;-51
2022/10/09 08:46:14;;;;;;;0.35;0.35;;;;;;;;;;1809229;78;27487;-53
2022/10/09 08:48:43;;;;;;;0.30;0.30;;;;;;;;;;1803947;78;26930;-52
2022/10/09 08:51:12;;;;;;;1.80;0.40;;;;;;;;;;1804401;78;26291;-54
2022/10/09 08:53:41;;;;;;;1.15;0.30;;;;;;;;;;1802508;78;26226;-52
2022/10/09 08:56:10;;;;;;;0.30;0.30;;;;;;;;;;1796357;78;26270;-52
2022/10/09 08:58:39;;;;;;;0.20;0.20;;;;;;;;;;1800946;78;26612;-52
2022/10/09 09:01:14;;;;;;;0.30;0.30;;;;;;;;;;1804507;78;26678;-54
2022/10/09 09:03:45;;;;;;;1.82;0.40;;;;;;;;;;1804730;78;26250;-53
2022/10/09 09:06:20;;;;;;;0.30;0.30;;;;;;;;;;1806844;78;26283;-52
2022/10/09 09:08:59;;;;;;;0.20;0.20;;;;;;;;;;1806781;78;27443;-57
2022/10/09 09:11:37;;;;;;;0.20;0.20;;;;;;;;;;1797628;78;26316;-54
2022/10/09 09:14:23;;;;;;;0.95;0.20;;;;;;;;;;1789300;78;26774;-52
2022/10/09 09:16:54;;;;;;;0.20;0.20;;;;;;;;;;1802955;78;26234;-51
2022/10/09 09:19:39;;;;;;;0.20;0.20;;;;;;;;;;1776613;78;26989;-52
2022/10/09 09:22:11;;;;;;;0.40;0.20;;;;;;;;;;1769056;79;26353;-54
2022/10/09 09:24:51;;;;;;;0.37;0.37;;;;;;;;;;1757515;79;26826;-54
2022/10/09 09:27:20;;;;;;;0.25;0.25;;;;;;;;;;1778388;79;26270;-54
2022/10/09 09:29:52;;;;;;;0.30;0.30;;;;;;;;;;1775251;79;26274;-51
2022/10/09 09:32:20;;;;;;;0.20;0.20;;;;;;;;;;1783860;79;26326;-53
2022/10/09 09:34:48;;;;;;;0.20;0.20;;;;;;;;;;1776786;79;26647;-52
2022/10/09 09:37:16;;;;;;;0.40;0.40;;;;;;;;;;1781433;79;26315;-53
2022/10/09 09:39:44;;;;;;;0.20;0.20;;;;;;;;;;1784899;79;27386;-56
2022/10/09 09:42:15;;;;;;;0.20;0.20;;;;;;;;;;1774068;79;26284;-54
2022/10/09 09:44:44;;;;;;;0.20;0.20;;;;;;;;;;1766166;79;26303;-53
2022/10/09 09:47:13;;;;;;;0.25;0.10;;;;;;;;;;1781767;79;26724;-52
2022/10/09 09:49:42;;;;;;;0.30;0.30;;;;;;;;;;1787954;79;26740;-52
2022/10/09 09:52:09;;;;;;;0.40;0.40;;;;;;;;;;1789468;79;27524;-52
2022/10/09 09:54:38;;;;;;;0.20;0.20;;;;;;;;;;1786250;79;26352;-51
2022/10/09 09:57:07;;;;;;;0.40;0.40;;;;;;;;;;1798254;79;26361;-52
2022/10/09 09:59:41;;;;;;;0.33;0.33;;;;;;;;;;1796102;79;26310;-56
2022/10/09 10:02:14;;;;;;;0.30;0.30;;;;;;;;;;1793847;79;27495;-54
2022/10/09 10:04:51;;;;;;;0.20;0.20;;;;;;;;;;1786407;79;26731;-52
2022/10/09 10:07:29;;;;;;;0.30;0.30;;;;;;;;;;1769188;79;26340;-52
2022/10/09 10:10:07;;;;;;;0.40;0.40;;;;;;;;;;1782008;79;26709;-51
2022/10/09 10:12:35;;;;;;;0.40;0.40;;;;;;;;;;1780986;79;26286;-52
2022/10/09 10:15:03;;;;;;;0.23;0.23;;;;;;;;;;1750798;79;26294;-49
2022/10/09 10:17:31;;;;;;;0.10;0.10;;;;;;;;;;1776093;79;26388;-52
2022/10/09 10:19:59;;;;;;;0.30;0.30;;;;;;;;;;1770411;79;26390;-51
2022/10/09 10:22:27;;;;;;;0.20;0.20;;;;;;;;;;1754378;79;26296;-53
2022/10/09 10:24:56;;;;;;;0.20;0.20;;;;;;;;;;1763358;79;26367;-52
2022/10/09 10:27:25;;;;;;;0.30;0.30;;;;;;;;;;1761336;79;26290;-52
2022/10/09 10:29:53;;;;;;;0.30;0.30;;;;;;;;;;1753318;79;26229;-53
2022/10/09 10:32:28;;;;;;;0.30;0.30;;;;;;;;;;1754388;79;26776;-50
2022/10/09 10:35:00;;;;;;;0.30;0.30;;;;;;;;;;1762168;79;27132;-53
2022/10/09 10:37:29;;;;;;;0.28;0.28;;;;;;;;;;1764291;79;26338;-49
2022/10/09 10:39:58;;;;;;;0.20;0.20;;;;;;;;;;1764618;79;27335;-54
2022/10/09 10:42:26;;;;;;;0.30;0.30;;;;;;;;;;1765940;79;26853;-53
2022/10/09 10:44:59;;;;;;;0.30;0.30;;;;;;;;;;1769314;79;26836;-56
2022/10/09 10:47:28;;;;;;;0.20;0.20;;;;;;;;;;1754585;79;27017;-54
2022/10/09 10:49:55;;;;;;;0.25;0.25;;;;;;;;;;1760974;79;27128;-51
2022/10/09 10:52:33;;;;;;;0.30;0.30;;;;;;;;;;1769914;79;26327;-52
2022/10/09 10:55:08;;;;;;;0.30;0.30;;;;;;;;;;1762740;79;26308;-54
2022/10/09 10:57:55;;;;;;;0.40;0.40;;;;;;;;;;1753807;79;26821;-52
2022/10/09 11:00:23;;;;;;;0.20;0.20;;;;;;;;;;1769537;79;26880;-52
2022/10/09 11:02:55;;;;;;;0.35;0.35;;;;;;;;;;1765110;79;26662;-54
2022/10/09 11:05:39;;;;;;;0.23;0.23;;;;;;;;;;1759168;79;26302;-54
2022/10/09 11:08:07;;;;;;;0.20;0.20;;;;;;;;;;1762824;79;26289;-55
2022/10/09 11:10:45;;;;;;;0.20;0.20;;;;;;;;;;1750837;79;27225;-57
2022/10/09 11:13:32;;;;;;;0.35;0.35;;;;;;;;;;1765795;79;26282;-55
2022/10/09 11:16:06;;;;;;;0.30;0.30;;;;;;;;;;1768668;79;26375;-53
2022/10/09 11:18:41;;;;;;;0.30;0.30;;;;;;;;;;1753259;78;26278;-53
2022/10/09 11:21:10;;;;;;;0.37;0.37;;;;;;;;;;1762000;79;26299;-56
2022/10/09 11:23:39;;;;;;;0.33;0.33;;;;;;;;;;1767323;79;26359;-54
2022/10/09 11:26:11;;;;;;;0.40;0.40;;;;;;;;;;1777944;79;26279;-50
2022/10/09 11:28:49;;;;;;;0.33;0.33;;;;;;;;;;1775419;79;26271;-51
2022/10/09 11:31:18;;;;;;;0.40;0.40;;;;;;;;;;1757148;79;26364;-53
2022/10/09 11:33:47;;;;;;;0.33;0.33;;;;;;;;;;1758393;79;26309;-51
2022/10/09 11:36:16;;;;;;;0.80;0.40;;;;;;;;;;1766567;79;26345;-52
2022/10/09 11:38:44;;;;;;;1.42;0.42;;;;;;;;;;1759854;79;26282;-50
2022/10/09 11:41:12;;;;;;;1.37;0.40;;;;;;;;;;1782151;79;26283;-52
2022/10/09 11:43:41;;;;;;;0.42;0.42;;;;;;;;;;1780842;79;26294;-51
2022/10/09 11:46:10;;;;;;;0.40;0.40;;;;;;;;;;1757040;79;26290;-52
2022/10/09 11:48:55;;;;;;;0.40;0.40;;;;;;;;;;1787058;79;26301;-51
2022/10/09 11:51:33;;;;;;;0.40;0.40;;;;;;;;;;1767928;79;26387;-52
2022/10/09 11:54:01;;;;;;;0.62;0.30;;;;;;;;;;1763841;79;26751;-54
2022/10/09 11:56:30;;;;;;;0.80;0.40;;;;;;;;;;1777475;79;26291;-53
2022/10/09 11:58:59;;;;;;;0.30;0.30;;;;;;;;;;1775775;79;27406;-52
2022/10/09 12:01:34;;;;;;;0.40;0.40;;;;;;;;;;1766084;79;26924;-53
2022/10/09 12:04:06;;;;;;;0.30;0.30;;;;;;;;;;1766488;79;26948;-53
2022/10/09 12:06:35;;;;;;;0.50;0.50;;;;;;;;;;1769724;79;26350;-55
2022/10/09 12:09:03;;;;;;;0.30;0.30;;;;;;;;;;1775097;79;26325;-54
2022/10/09 12:11:32;;;;;;;0.30;0.30;;;;;;;;;;1773321;79;26551;-52
2022/10/09 12:14:00;;;;;;;0.30;0.30;;;;;;;;;;1771118;79;26349;-51
2022/10/09 12:16:29;;;;;;;0.20;0.20;;;;;;;;;;1776707;79;26604;-55
2022/10/09 12:18:57;;;;;;;2.25;0.30;;;;;;;;;;1755930;79;26289;-53
2022/10/09 12:21:26;;;;;;;0.37;0.37;;;;;;;;;;1772748;79;26322;-53
2022/10/09 12:23:53;;;;;;;0.30;0.30;;;;;;;;;;1764319;79;26344;-54
2022/10/09 12:26:22;;;;;;;0.30;0.30;;;;;;;;;;1769538;79;26353;-53
2022/10/09 12:28:51;;;;;;;0.23;0.23;;;;;;;;;;1773404;79;26309;-53
2022/10/09 12:31:26;;;;;;;0.37;0.37;;;;;;;;;;1780847;79;27469;-54
2022/10/09 12:33:55;;;;;;;0.30;0.30;;;;;;;;;;1788588;79;26264;-51
2022/10/09 12:36:23;;;;;;;0.40;0.40;;;;;;;;;;1761894;79;26631;-49
2022/10/09 12:38:51;;;;;;;0.33;0.33;;;;;;;;;;1758640;79;26293;-53
2022/10/09 12:41:20;;;;;;;0.30;0.30;;;;;;;;;;1796638;79;26337;-52
2022/10/09 12:43:49;;;;;;;0.50;0.50;;;;;;;;;;1769364;79;26616;-53
2022/10/09 12:46:30;;;;;;;0.50;0.50;;;;;;;;;;1782808;79;26303;-53
2022/10/09 12:48:58;;;;;;;0.40;0.40;;;;;;;;;;1756476;79;26309;-54
2022/10/09 12:51:26;;;;;;;0.40;0.40;;;;;;;;;;1774756;79;26755;-52
2022/10/09 12:53:54;;;;;;;0.93;0.50;;;;;;;;;;1787724;79;27336;-51
2022/10/09 12:56:32;;;;;;;0.40;0.40;;;;;;;;;;1778114;79;26330;-52
2022/10/09 12:59:01;;;;;;;0.47;0.47;;;;;;;;;;1767781;79;26779;-53
2022/10/09 13:01:29;;;;;;;0.30;0.30;;;;;;;;;;1778392;79;26377;-53
2022/10/09 13:03:57;;;;;;;0.53;0.50;;;;;;;;;;1763224;79;26708;-54
2022/10/09 13:06:26;;;;;;;0.50;0.50;;;;;;;;;;1771252;79;27579;-54
2022/10/09 13:08:55;;;;;;;0.40;0.40;;;;;;;;;;1764115;79;27143;-51
2022/10/09 13:11:26;;;;;;;0.42;0.40;;;;;;;;;;1769158;79;26305;-53
2022/10/09 13:13:54;;;;;;;0.53;0.53;;;;;;;;;;1762724;79;26748;-51
2022/10/09 13:16:22;;;;;;;4.85;0.90;;;;;;;;;;1771458;79;26341;-53
2022/10/09 13:18:59;;;;;;;0.82;0.60;;;;;;;;;;1770128;79;26773;-52
2022/10/09 13:21:28;;;;;;;0.50;0.50;;;;;;;;;;1763905;79;26832;-53
2022/10/09 13:23:55;;;;;;;1.62;0.70;;;;;;;;;;1777421;79;26282;-50
2022/10/09 13:26:24;;;;;;;0.50;0.50;;;;;;;;;;1777890;79;26319;-53
2022/10/09 13:28:52;;;;;;;0.65;0.65;;;;;;;;;;1756212;79;26285;-54
2022/10/09 13:31:19;;;;;;;0.40;0.40;;;;;;;;;;1781469;79;27186;-55
2022/10/09 13:33:47;;;;;;;0.50;0.50;;;;;;;;;;1772843;79;26346;-52
2022/10/09 13:36:15;;;;;;;1.37;0.57;;;;;;;;;;1764563;79;26361;-52
2022/10/09 13:38:42;;;;;;;0.72;0.50;;;;;;;;;;1773268;79;26322;-52
2022/10/09 13:41:11;;;;;;;1.65;0.40;;;;;;;;;;1766054;79;26383;-54
2022/10/09 13:43:38;;;;;;;0.47;0.47;;;;;;;;;;1771737;79;26300;-51
2022/10/09 13:46:06;;;;;;;0.40;0.40;;;;;;;;;;1770786;79;26310;-50
2022/10/09 13:48:33;;;;;;;0.50;0.50;;;;;;;;;;1770737;79;26369;-53
2022/10/09 13:51:00;;;;;;;0.60;0.60;;;;;;;;;;1785765;79;26286;-51
2022/10/09 13:53:28;;;;;;;0.50;0.50;;;;;;;;;;1781103;79;26507;-49
2022/10/09 13:55:55;;;;;;;0.40;0.40;;;;;;;;;;1761837;79;26276;-51
2022/10/09 13:58:22;;;;;;;0.50;0.50;;;;;;;;;;1782022;79;26593;-53
2022/10/09 14:00:50;;;;;;;1.32;0.60;;;;;;;;;;1767221;79;26396;-52
2022/10/09 14:03:17;;;;;;;0.60;0.60;;;;;;;;;;1763512;79;26309;-54
2022/10/09 14:05:45;;;;;;;0.75;0.53;;;;;;;;;;1758322;79;26798;-51
2022/10/09 14:08:12;;;;;;;0.50;0.50;;;;;;;;;;1767168;79;26294;-54
2022/10/09 14:10:42;;;;;;;0.50;0.50;;;;;;;;;;1787851;79;26308;-51
2022/10/09 14:13:10;;;;;;;2.05;0.47;;;;;;;;;;1786925;79;26301;-53
2022/10/09 14:15:39;;;;;;;0.30;0.30;;;;;;;;;;1760771;79;26327;-53
2022/10/09 14:18:06;;;;;;;0.62;0.47;;;;;;;;;;1756332;79;26380;-51
2022/10/09 14:20:34;;;;;;;0.95;0.40;;;;;;;;;;1762834;79;26846;-51
2022/10/09 14:23:01;;;;;;;0.40;0.40;;;;;;;;;;1784233;79;26286;-54
2022/10/09 14:25:29;;;;;;;0.40;0.40;;;;;;;;;;1759855;79;26397;-48
2022/10/09 14:27:56;;;;;;;0.40;0.40;;;;;;;;;;1761363;79;27362;-55
2022/10/09 14:30:24;;;;;;;0.53;0.53;;;;;;;;;;1768025;79;26345;-52
2022/10/09 14:32:51;;;;;;;0.40;0.40;;;;;;;;;;1766545;79;26275;-52
2022/10/09 14:35:18;;;;;;;0.40;0.40;;;;;;;;;;1769943;79;26334;-50
2022/10/09 14:37:45;;;;;;;1.25;0.40;;;;;;;;;;1775903;79;26334;-53
2022/10/09 14:40:13;;;;;;;0.33;0.33;;;;;;;;;;1775666;79;26763;-54
2022/10/09 14:42:40;;;;;;;0.70;0.70;;;;;;;;;;1777739;79;26333;-53
2022/10/09 14:45:08;;;;;;;0.40;0.40;;;;;;;;;;1770905;79;26821;-52
2022/10/09 14:47:36;;;;;;;0.30;0.30;;;;;;;;;;1754812;79;26856;-52
2022/10/09 14:50:03;;;;;;;1.22;0.40;;;;;;;;;;1755928;79;26301;-53
2022/10/09 14:52:30;;;;;;;0.60;0.37;;;;;;;;;;1786058;79;27440;-52
2022/10/09 14:54:58;;;;;;;0.47;0.47;;;;;;;;;;1782922;79;26344;-53